createdAt,value
2023-03-02T00:00:22.348Z,5.60
2023-03-02T00:01:22.324Z,5.30
2023-03-02T00:02:22.628Z,4.90
2023-03-02T00:03:22.347Z,4.40
2023-03-02T00:04:22.301Z,6.10
2023-03-02T00:05:22.293Z,6.60
2023-03-02T00:06:22.275Z,4.90
2023-03-02T00:07:22.266Z,4.70
2023-03-02T00:08:22.256Z,5.10
2023-03-02T00:09:22.238Z,4.80
2023-03-02T00:10:22.276Z,5.10
2023-03-02T00:11:22.227Z,5.00
2023-03-02T00:12:22.214Z,4.60
2023-03-02T00:13:22.189Z,4.60
2023-03-02T00:14:22.203Z,4.20
2023-03-02T00:15:22.180Z,4.20
2023-03-02T00:16:22.205Z,4.80
2023-03-02T00:17:22.145Z,4.40
2023-03-02T00:18:22.154Z,4.70
2023-03-02T00:19:22.150Z,4.10
2023-03-02T00:20:22.131Z,5.10
2023-03-02T00:21:22.124Z,4.90
2023-03-02T00:22:22.119Z,4.60
2023-03-02T00:23:22.083Z,4.60
2023-03-02T00:24:22.071Z,5.10
2023-03-02T00:25:22.054Z,4.40
2023-03-02T00:26:22.079Z,4.70
2023-03-02T00:27:22.034Z,4.70
2023-03-02T00:28:22.038Z,4.70
2023-03-02T00:29:22.032Z,4.50
2023-03-02T00:30:22.004Z,4.90
2023-03-02T00:31:21.996Z,4.30
2023-03-02T00:32:22.004Z,4.70
2023-03-02T00:33:21.966Z,4.50
2023-03-02T00:34:21.962Z,4.80
2023-03-02T00:35:22.015Z,4.60
2023-03-02T00:36:21.936Z,4.70
2023-03-02T00:37:21.919Z,4.90
2023-03-02T00:38:21.907Z,4.70
2023-03-02T00:39:21.915Z,4.40
2023-03-02T00:40:21.931Z,4.60
2023-03-02T00:41:21.981Z,4.50
2023-03-02T00:42:21.860Z,4.90
2023-03-02T00:43:28.865Z,4.90
2023-03-02T00:44:21.852Z,4.50
2023-03-02T00:45:21.836Z,4.70
2023-03-02T00:46:21.876Z,4.70
2023-03-02T00:47:21.811Z,5.00
2023-03-02T00:48:21.802Z,4.00
2023-03-02T00:49:21.820Z,4.70
2023-03-02T00:50:21.816Z,4.40
2023-03-02T00:51:21.805Z,4.60
2023-03-02T00:52:21.755Z,4.20
2023-03-02T00:53:21.733Z,4.80
2023-03-02T00:54:21.724Z,4.60
2023-03-02T00:55:21.724Z,5.10
2023-03-02T00:56:21.703Z,4.60
2023-03-02T00:57:21.698Z,4.90
2023-03-02T00:58:21.687Z,4.80
2023-03-02T00:59:21.691Z,4.90
2023-03-02T01:00:21.661Z,4.50
2023-03-02T01:01:21.652Z,4.70
2023-03-02T01:02:21.764Z,5.00
2023-03-02T01:03:21.677Z,4.50
2023-03-02T01:04:21.615Z,4.50
2023-03-02T01:05:21.602Z,4.80
2023-03-02T01:06:21.597Z,4.60
2023-03-02T01:07:21.636Z,4.90
2023-03-02T01:08:21.578Z,5.00
2023-03-02T01:09:21.585Z,5.00
2023-03-02T01:10:21.573Z,5.20
2023-03-02T01:11:21.603Z,4.60
2023-03-02T01:12:21.545Z,4.90
2023-03-02T01:13:21.528Z,4.50
2023-03-02T01:14:21.565Z,5.10
2023-03-02T01:15:21.495Z,4.90
2023-03-02T01:16:21.550Z,4.60
2023-03-02T01:17:21.490Z,4.90
2023-03-02T01:18:21.469Z,4.40
2023-03-02T01:19:21.467Z,4.80
2023-03-02T01:20:21.448Z,4.80
2023-03-02T01:21:21.446Z,4.50
2023-03-02T01:22:21.425Z,4.80
2023-03-02T01:23:21.441Z,4.30
2023-03-02T01:24:21.423Z,5.20
2023-03-02T01:25:21.429Z,4.40
2023-03-02T01:26:21.403Z,4.10
2023-03-02T01:27:21.398Z,4.20
2023-03-02T01:28:21.369Z,4.10
2023-03-02T01:29:21.358Z,3.90
2023-03-02T01:30:21.392Z,4.30
2023-03-02T01:31:21.429Z,4.40
2023-03-02T01:32:21.404Z,4.30
2023-03-02T01:33:21.336Z,4.10
2023-03-02T01:34:21.327Z,4.10
2023-03-02T01:35:21.419Z,4.10
2023-03-02T01:36:21.292Z,4.50
2023-03-02T01:37:21.266Z,3.80
2023-03-02T01:38:21.317Z,4.20
2023-03-02T01:39:21.263Z,4.50
2023-03-02T01:40:21.256Z,4.20
2023-03-02T01:41:21.235Z,4.00
2023-03-02T01:42:21.218Z,3.90
2023-03-02T01:43:21.218Z,4.30
2023-03-02T01:44:21.215Z,4.30
2023-03-02T01:45:21.246Z,4.70
2023-03-02T01:46:21.162Z,3.90
2023-03-02T01:47:21.179Z,3.90
2023-03-02T01:48:21.149Z,3.90
2023-03-02T01:49:21.172Z,3.90
2023-03-02T01:50:21.138Z,4.50
2023-03-02T01:51:21.117Z,4.10
2023-03-02T01:52:21.098Z,4.30
2023-03-02T01:53:21.086Z,4.00
2023-03-02T01:54:21.089Z,4.10
2023-03-02T01:55:21.098Z,4.10
2023-03-02T01:56:21.052Z,3.90
2023-03-02T01:57:21.057Z,4.10
2023-03-02T01:58:21.031Z,4.20
2023-03-02T01:59:21.029Z,4.20
2023-03-02T02:00:21.018Z,4.10
2023-03-02T02:01:21.075Z,4.10
2023-03-02T02:02:21.000Z,4.40
2023-03-02T02:03:21.097Z,4.40
2023-03-02T02:04:21.016Z,4.00
2023-03-02T02:05:20.951Z,4.00
2023-03-02T02:06:20.938Z,4.00
2023-03-02T02:07:20.928Z,4.60
2023-03-02T02:08:20.931Z,4.60
2023-03-02T02:09:20.909Z,4.50
2023-03-02T02:10:20.901Z,4.70
2023-03-02T02:11:20.905Z,4.90
2023-03-02T02:12:20.894Z,4.50
2023-03-02T02:13:20.871Z,4.90
2023-03-02T02:14:20.860Z,4.60
2023-03-02T02:15:20.866Z,4.30
2023-03-02T02:16:20.901Z,4.50
2023-03-02T02:17:20.825Z,4.30
2023-03-02T02:18:20.853Z,4.40
2023-03-02T02:19:20.816Z,4.60
2023-03-02T02:20:20.787Z,4.10
2023-03-02T02:21:20.781Z,4.50
2023-03-02T02:22:20.759Z,4.20
2023-03-02T02:23:20.760Z,4.30
2023-03-02T02:24:20.752Z,4.70
2023-03-02T02:25:20.744Z,4.00
2023-03-02T02:26:20.730Z,4.20
2023-03-02T02:27:20.739Z,4.50
2023-03-02T02:28:20.702Z,4.30
2023-03-02T02:29:20.694Z,4.30
2023-03-02T02:30:20.683Z,3.90
2023-03-02T02:31:20.757Z,4.40
2023-03-02T02:32:20.772Z,4.70
2023-03-02T02:33:20.641Z,4.00
2023-03-02T02:34:20.632Z,4.40
2023-03-02T02:35:20.718Z,4.60
2023-03-02T02:36:20.622Z,4.60
2023-03-02T02:37:20.606Z,4.20
2023-03-02T02:38:20.594Z,4.70
2023-03-02T02:39:20.592Z,4.10
2023-03-02T02:40:20.573Z,4.40
2023-03-02T02:41:20.547Z,4.50
2023-03-02T02:42:20.543Z,4.20
2023-03-02T02:43:20.542Z,4.80
2023-03-02T02:44:28.036Z,4.90
2023-03-02T02:45:20.506Z,4.70
2023-03-02T02:46:20.535Z,4.10
2023-03-02T02:47:20.480Z,4.90
2023-03-02T02:48:20.501Z,4.90
2023-03-02T02:49:20.482Z,4.70
2023-03-02T02:50:20.468Z,4.70
2023-03-02T02:51:20.457Z,4.60
2023-03-02T02:52:20.433Z,4.50
2023-03-02T02:53:20.452Z,4.50
2023-03-02T02:54:20.417Z,4.50
2023-03-02T02:55:20.412Z,4.60
2023-03-02T02:56:20.388Z,4.50
2023-03-02T02:57:20.393Z,4.60
2023-03-02T02:58:20.361Z,4.80
2023-03-02T02:59:20.384Z,4.60
2023-03-02T03:00:20.337Z,4.90
2023-03-02T03:01:20.379Z,4.50
2023-03-02T03:02:20.344Z,4.80
2023-03-02T03:03:20.304Z,4.50
2023-03-02T03:04:20.382Z,4.80
2023-03-02T03:05:20.296Z,4.80
2023-03-02T03:06:20.268Z,4.70
2023-03-02T03:07:20.270Z,4.80
2023-03-02T03:08:20.276Z,4.60
2023-03-02T03:09:20.299Z,4.90
2023-03-02T03:10:20.225Z,4.80
2023-03-02T03:11:20.236Z,4.80
2023-03-02T03:12:20.202Z,4.30
2023-03-02T03:13:20.195Z,4.90
2023-03-02T03:14:20.202Z,4.30
2023-03-02T03:15:20.197Z,4.60
2023-03-02T03:16:20.200Z,4.90
2023-03-02T03:17:20.161Z,4.50
2023-03-02T03:18:20.149Z,4.60
2023-03-02T03:19:20.154Z,4.90
2023-03-02T03:20:20.118Z,4.90
2023-03-02T03:21:20.127Z,4.60
2023-03-02T03:22:20.095Z,4.60
2023-03-02T03:23:20.114Z,4.50
2023-03-02T03:24:20.110Z,4.60
2023-03-02T03:25:20.064Z,4.60
2023-03-02T03:26:20.051Z,4.50
2023-03-02T03:27:20.059Z,4.70
2023-03-02T03:28:20.057Z,5.10
2023-03-02T03:29:20.047Z,4.40
2023-03-02T03:30:20.009Z,4.60
2023-03-02T03:31:20.125Z,4.60
2023-03-02T03:32:20.126Z,4.90
2023-03-02T03:33:19.990Z,4.70
2023-03-02T03:34:19.985Z,4.70
2023-03-02T03:35:20.022Z,4.80
2023-03-02T03:36:19.944Z,4.70
2023-03-02T03:37:19.950Z,5.20
2023-03-02T03:38:19.931Z,4.80
2023-03-02T03:39:19.914Z,4.90
2023-03-02T03:40:19.902Z,4.90
2023-03-02T03:41:19.900Z,4.70
2023-03-02T03:42:19.918Z,4.90
2023-03-02T03:43:19.884Z,5.00
2023-03-02T03:44:19.860Z,4.80
2023-03-02T03:45:19.849Z,5.10
2023-03-02T03:46:19.913Z,5.10
2023-03-02T03:47:19.862Z,4.60
2023-03-02T03:48:19.820Z,4.70
2023-03-02T03:49:19.813Z,5.10
2023-03-02T03:50:19.817Z,5.10
2023-03-02T03:51:19.792Z,4.90
2023-03-02T03:52:19.789Z,4.80
2023-03-02T03:53:19.793Z,4.50
2023-03-02T03:54:19.783Z,4.70
2023-03-02T03:55:19.750Z,4.80
2023-03-02T03:56:19.753Z,5.10
2023-03-02T03:57:19.729Z,4.80
2023-03-02T03:58:19.758Z,4.90
2023-03-02T03:59:19.733Z,5.10
2023-03-02T04:00:19.693Z,5.00
2023-03-02T04:01:19.765Z,4.90
2023-03-02T04:02:19.736Z,4.80
2023-03-02T04:03:19.711Z,5.30
2023-03-02T04:04:19.656Z,4.90
2023-03-02T04:05:19.660Z,5.40
2023-03-02T04:06:19.631Z,5.50
2023-03-02T04:07:19.623Z,4.80
2023-03-02T04:08:19.627Z,4.80
2023-03-02T04:09:19.603Z,5.10
2023-03-02T04:10:19.610Z,4.80
2023-03-02T04:11:19.592Z,4.80
2023-03-02T04:12:19.576Z,5.20
2023-03-02T04:13:19.562Z,5.30
2023-03-02T04:14:19.553Z,4.80
2023-03-02T04:15:19.558Z,4.80
2023-03-02T04:16:19.604Z,5.00
2023-03-02T04:17:19.524Z,5.00
2023-03-02T04:18:19.525Z,4.90
2023-03-02T04:19:19.525Z,5.40
2023-03-02T04:20:19.520Z,4.80
2023-03-02T04:21:19.486Z,5.50
2023-03-02T04:22:19.469Z,4.90
2023-03-02T04:23:19.466Z,5.90
2023-03-02T04:24:19.463Z,5.10
2023-03-02T04:25:19.457Z,5.60
2023-03-02T04:26:19.456Z,5.40
2023-03-02T04:27:19.415Z,5.10
2023-03-02T04:28:19.417Z,5.50
2023-03-02T04:29:19.394Z,5.60
2023-03-02T04:30:19.384Z,5.40
2023-03-02T04:31:19.431Z,5.50
2023-03-02T04:32:19.390Z,5.30
2023-03-02T04:33:19.374Z,5.00
2023-03-02T04:34:19.365Z,5.70
2023-03-02T04:35:19.445Z,5.60
2023-03-02T04:36:19.348Z,5.30
2023-03-02T04:37:19.345Z,5.10
2023-03-02T04:38:19.342Z,5.30
2023-03-02T04:39:19.304Z,5.20
2023-03-02T04:40:19.305Z,5.50
2023-03-02T04:41:19.288Z,5.20
2023-03-02T04:42:19.273Z,4.90
2023-03-02T04:43:19.291Z,5.10
2023-03-02T04:44:19.266Z,5.10
2023-03-02T04:45:26.765Z,4.80
2023-03-02T04:46:19.308Z,4.80
2023-03-02T04:47:19.241Z,4.90
2023-03-02T04:48:19.218Z,5.10
2023-03-02T04:49:19.236Z,5.00
2023-03-02T04:50:19.208Z,4.80
2023-03-02T04:51:19.214Z,5.20
2023-03-02T04:52:19.193Z,4.70
2023-03-02T04:53:19.173Z,5.40
2023-03-02T04:54:19.167Z,4.90
2023-03-02T04:55:19.164Z,5.50
2023-03-02T04:56:19.136Z,5.10
2023-03-02T04:57:19.145Z,5.30
2023-03-02T04:58:19.121Z,5.00
2023-03-02T04:59:19.134Z,4.90
2023-03-02T05:00:19.107Z,4.90
2023-03-02T05:01:19.090Z,5.80
2023-03-02T05:02:19.213Z,5.70
2023-03-02T05:03:19.085Z,4.70
2023-03-02T05:04:19.135Z,5.20
2023-03-02T05:05:19.057Z,5.10
2023-03-02T05:06:19.035Z,5.50
2023-03-02T05:07:19.069Z,5.00
2023-03-02T05:08:19.040Z,5.10
2023-03-02T05:09:19.012Z,4.70
2023-03-02T05:10:19.021Z,5.10
2023-03-02T05:11:19.000Z,5.30
2023-03-02T05:12:19.011Z,5.30
2023-03-02T05:13:18.989Z,5.40
2023-03-02T05:14:18.992Z,4.70
2023-03-02T05:15:18.954Z,5.10
2023-03-02T05:16:19.052Z,5.40
2023-03-02T05:17:18.942Z,5.20
2023-03-02T05:18:18.918Z,5.20
2023-03-02T05:19:18.933Z,4.80
2023-03-02T05:20:18.902Z,4.90
2023-03-02T05:21:18.910Z,5.50
2023-03-02T05:22:18.891Z,5.10
2023-03-02T05:23:18.912Z,5.30
2023-03-02T05:24:18.861Z,4.90
2023-03-02T05:25:18.862Z,5.60
2023-03-02T05:26:18.854Z,5.60
2023-03-02T05:27:18.846Z,5.40
2023-03-02T05:28:18.817Z,5.00
2023-03-02T05:29:18.812Z,5.60
2023-03-02T05:30:18.800Z,4.90
2023-03-02T05:31:19.333Z,5.60
2023-03-02T05:32:18.835Z,5.00
2023-03-02T05:33:18.777Z,5.90
2023-03-02T05:34:18.773Z,4.90
2023-03-02T05:35:18.852Z,5.00
2023-03-02T05:36:20.320Z,5.00
2023-03-02T05:37:18.760Z,5.40
2023-03-02T05:38:18.717Z,4.80
2023-03-02T05:39:18.774Z,4.80
2023-03-02T05:40:18.709Z,5.30
2023-03-02T05:41:18.709Z,5.70
2023-03-02T05:42:18.681Z,4.70
2023-03-02T05:43:18.684Z,5.10
2023-03-02T05:44:18.696Z,4.90
2023-03-02T05:45:18.645Z,5.80
2023-03-02T05:46:20.415Z,5.50
2023-03-02T05:47:18.634Z,5.40
2023-03-02T05:48:18.622Z,5.10
2023-03-02T05:49:18.639Z,5.50
2023-03-02T05:50:18.631Z,5.30
2023-03-02T05:51:18.597Z,6.00
2023-03-02T05:52:18.584Z,5.70
2023-03-02T05:53:18.568Z,5.40
2023-03-02T05:54:18.581Z,5.00
2023-03-02T05:55:18.584Z,5.70
2023-03-02T05:56:18.548Z,5.10
2023-03-02T05:57:18.537Z,5.40
2023-03-02T05:58:18.518Z,4.90
2023-03-02T05:59:18.505Z,5.30
2023-03-02T06:00:18.512Z,6.10
2023-03-02T06:01:18.517Z,5.40
2023-03-02T06:02:18.535Z,5.20
2023-03-02T06:03:18.560Z,5.00
2023-03-02T06:04:18.459Z,5.70
2023-03-02T06:05:18.458Z,5.40
2023-03-02T06:06:18.464Z,5.20
2023-03-02T06:07:18.432Z,5.60
2023-03-02T06:08:18.425Z,5.40
2023-03-02T06:09:18.432Z,5.70
2023-03-02T06:10:18.407Z,5.40
2023-03-02T06:11:18.432Z,5.50
2023-03-02T06:12:18.399Z,5.40
2023-03-02T06:13:18.391Z,5.50
2023-03-02T06:14:18.370Z,5.30
2023-03-02T06:15:18.341Z,5.30
2023-03-02T06:16:18.388Z,5.30
2023-03-02T06:17:18.348Z,5.20
2023-03-02T06:18:18.356Z,5.80
2023-03-02T06:19:18.300Z,5.40
2023-03-02T06:20:18.326Z,5.20
2023-03-02T06:21:18.314Z,5.40
2023-03-02T06:22:18.328Z,5.50
2023-03-02T06:23:18.305Z,5.90
2023-03-02T06:24:18.269Z,5.00
2023-03-02T06:25:18.240Z,5.20
2023-03-02T06:26:18.262Z,5.40
2023-03-02T06:27:18.239Z,5.40
2023-03-02T06:28:18.212Z,5.90
2023-03-02T06:29:18.240Z,5.70
2023-03-02T06:30:18.197Z,5.30
2023-03-02T06:31:18.275Z,5.10
2023-03-02T06:32:18.361Z,5.20
2023-03-02T06:33:18.205Z,5.10
2023-03-02T06:34:18.149Z,5.50
2023-03-02T06:35:18.291Z,5.60
2023-03-02T06:36:18.230Z,5.40
2023-03-02T06:37:18.145Z,5.60
2023-03-02T06:38:18.105Z,5.30
2023-03-02T06:39:18.108Z,4.90
2023-03-02T06:40:18.094Z,5.30
2023-03-02T06:41:18.184Z,5.20
2023-03-02T06:42:18.067Z,5.40
2023-03-02T06:43:18.081Z,5.60
2023-03-02T06:44:18.049Z,5.80
2023-03-02T06:45:18.032Z,5.30
2023-03-02T06:47:28.019Z,5.20
2023-03-02T06:48:28.028Z,5.30
2023-03-02T06:49:27.984Z,5.90
2023-03-02T06:50:28.958Z,5.20
2023-03-02T06:51:27.973Z,6.10
2023-03-02T06:52:28.019Z,5.60
2023-03-02T06:53:30.586Z,5.20
2023-03-02T06:54:27.971Z,5.50
2023-03-02T06:55:27.937Z,5.90
2023-03-02T06:56:27.936Z,5.50
2023-03-02T06:57:27.934Z,5.50
2023-03-02T06:58:27.951Z,5.30
2023-03-02T06:59:27.927Z,5.60
2023-03-02T07:00:27.920Z,4.80
2023-03-02T07:01:27.875Z,5.30
2023-03-02T07:02:27.857Z,5.50
2023-03-02T07:03:27.894Z,5.10
2023-03-02T07:04:27.840Z,5.00
2023-03-02T07:05:27.814Z,5.20
2023-03-02T07:06:27.806Z,5.50
2023-03-02T07:07:27.795Z,5.30
2023-03-02T07:08:27.783Z,5.50
2023-03-02T07:09:27.781Z,5.10
2023-03-02T07:10:27.754Z,5.20
2023-03-02T07:11:27.760Z,5.30
2023-03-02T07:12:27.753Z,5.60
2023-03-02T07:13:27.731Z,5.20
2023-03-02T07:14:27.729Z,5.60
2023-03-02T07:15:27.722Z,5.30
2023-03-02T07:16:27.767Z,5.40
2023-03-02T07:17:27.673Z,6.60
2023-03-02T07:18:27.989Z,5.60
2023-03-02T07:19:27.650Z,5.30
2023-03-02T07:20:27.642Z,5.30
2023-03-02T07:21:27.641Z,5.70
2023-03-02T07:22:27.617Z,5.60
2023-03-02T07:23:27.604Z,5.40
2023-03-02T07:24:27.613Z,6.00
2023-03-02T07:25:27.579Z,5.70
2023-03-02T07:26:27.606Z,5.60
2023-03-02T07:27:27.560Z,5.70
2023-03-02T07:28:27.561Z,5.60
2023-03-02T07:29:27.549Z,5.70
2023-03-02T07:30:27.551Z,6.10
2023-03-02T07:31:27.533Z,5.90
2023-03-02T07:32:27.547Z,5.80
2023-03-02T07:33:27.490Z,6.40
2023-03-02T07:34:27.520Z,6.50
2023-03-02T07:35:27.479Z,6.50
2023-03-02T07:36:27.460Z,6.20
2023-03-02T07:37:27.508Z,5.50
2023-03-02T07:38:27.439Z,6.50
2023-03-02T07:39:27.431Z,6.00
2023-03-02T07:40:27.420Z,6.40
2023-03-02T07:41:27.424Z,6.50
2023-03-02T07:42:27.397Z,6.50
2023-03-02T07:43:27.391Z,6.60
2023-03-02T07:44:27.366Z,6.30
2023-03-02T07:45:27.373Z,6.40
2023-03-02T07:46:27.462Z,6.90
2023-03-02T07:47:27.358Z,6.60
2023-03-02T07:48:27.337Z,7.00
2023-03-02T07:49:27.318Z,7.00
2023-03-02T07:50:27.308Z,7.40
2023-03-02T07:51:27.303Z,7.20
2023-03-02T07:52:27.296Z,6.80
2023-03-02T07:53:27.272Z,7.30
2023-03-02T07:54:27.260Z,7.50
2023-03-02T07:55:27.248Z,7.50
2023-03-02T07:56:28.037Z,7.10
2023-03-02T07:57:27.258Z,7.30
2023-03-02T07:58:27.220Z,7.90
2023-03-02T07:59:27.234Z,7.70
2023-03-02T08:00:27.991Z,8.00
2023-03-02T08:01:27.217Z,7.90
2023-03-02T08:02:27.258Z,7.30
2023-03-02T08:03:27.182Z,8.00
2023-03-02T08:04:27.154Z,7.80
2023-03-02T08:05:27.158Z,7.20
2023-03-02T08:06:27.208Z,7.90
2023-03-02T08:07:27.244Z,7.50
2023-03-02T08:08:27.104Z,7.60
2023-03-02T08:09:27.105Z,7.90
2023-03-02T08:10:27.084Z,7.80
2023-03-02T08:11:27.073Z,7.90
2023-03-02T08:12:27.062Z,9.50
2023-03-02T08:13:27.051Z,7.70
2023-03-02T08:14:27.053Z,8.10
2023-03-02T08:15:27.511Z,7.20
2023-03-02T08:16:27.133Z,8.10
2023-03-02T08:17:27.058Z,7.90
2023-03-02T08:18:27.021Z,8.00
2023-03-02T08:19:26.986Z,7.60
2023-03-02T08:20:26.995Z,7.70
2023-03-02T08:21:27.014Z,7.60
2023-03-02T08:22:26.957Z,7.70
2023-03-02T08:23:26.981Z,7.80
2023-03-02T08:24:26.951Z,7.90
2023-03-02T08:25:26.924Z,7.40
2023-03-02T08:26:26.912Z,8.20
2023-03-02T08:27:26.946Z,8.20
2023-03-02T08:28:26.903Z,8.60
2023-03-02T08:29:26.910Z,8.00
2023-03-02T08:30:26.911Z,8.50
2023-03-02T08:31:27.643Z,8.10
2023-03-02T08:32:26.963Z,8.00
2023-03-02T08:33:26.877Z,7.90
2023-03-02T08:34:26.854Z,8.90
2023-03-02T08:35:26.921Z,8.30
2023-03-02T08:36:26.821Z,8.70
2023-03-02T08:37:27.060Z,8.30
2023-03-02T08:38:26.907Z,8.80
2023-03-02T08:39:28.979Z,9.20
2023-03-02T08:40:28.545Z,8.40
2023-03-02T08:41:26.778Z,8.50
2023-03-02T08:42:26.759Z,8.90
2023-03-02T08:43:26.748Z,9.10
2023-03-02T08:44:26.768Z,9.30
2023-03-02T08:45:26.750Z,8.60
2023-03-02T08:46:26.728Z,9.20
2023-03-02T08:47:34.241Z,8.80
2023-03-02T08:48:26.776Z,8.90
2023-03-02T08:49:26.675Z,9.20
2023-03-02T08:50:26.683Z,9.10
2023-03-02T08:51:26.648Z,8.70
2023-03-02T08:52:26.639Z,8.90
2023-03-02T08:53:26.640Z,8.90
2023-03-02T08:54:26.627Z,9.20
2023-03-02T08:55:26.621Z,9.30
2023-03-02T08:56:26.601Z,9.70
2023-03-02T08:57:26.606Z,9.50
2023-03-02T08:58:26.580Z,9.30
2023-03-02T08:59:26.548Z,8.80
2023-03-02T09:00:26.558Z,9.40
2023-03-02T09:01:26.615Z,8.60
2023-03-02T09:02:26.517Z,9.30
2023-03-02T09:03:26.531Z,9.80
2023-03-02T09:04:26.559Z,8.90
2023-03-02T09:05:26.538Z,9.40
2023-03-02T09:06:26.532Z,9.10
2023-03-02T09:07:26.501Z,8.70
2023-03-02T09:08:26.469Z,9.60
2023-03-02T09:09:26.535Z,9.40
2023-03-02T09:10:26.484Z,9.50
2023-03-02T09:11:26.441Z,8.90
2023-03-02T09:12:26.409Z,10.10
2023-03-02T09:13:26.392Z,10.40
2023-03-02T09:14:26.407Z,10.60
2023-03-02T09:15:26.429Z,10.00
2023-03-02T09:16:26.447Z,12.40
2023-03-02T09:17:26.371Z,11.10
2023-03-02T09:18:26.336Z,10.00
2023-03-02T09:19:26.339Z,9.00
2023-03-02T09:20:26.408Z,9.00
2023-03-02T09:21:26.322Z,9.70
2023-03-02T09:22:26.314Z,10.30
2023-03-02T09:23:26.317Z,11.10
2023-03-02T09:24:26.316Z,9.90
2023-03-02T09:25:26.302Z,9.90
2023-03-02T09:26:26.288Z,9.20
2023-03-02T09:27:26.258Z,9.80
2023-03-02T09:28:26.268Z,10.10
2023-03-02T09:29:26.292Z,10.20
2023-03-02T09:30:26.337Z,9.90
2023-03-02T09:31:27.925Z,8.80
2023-03-02T09:32:26.305Z,8.80
2023-03-02T09:33:26.230Z,9.00
2023-03-02T09:34:26.189Z,9.20
2023-03-02T09:35:26.179Z,9.90
2023-03-02T09:36:26.166Z,11.60
2023-03-02T09:37:26.187Z,11.50
2023-03-02T09:38:26.137Z,10.30
2023-03-02T09:39:26.177Z,9.90
2023-03-02T09:40:26.125Z,9.60
2023-03-02T09:41:26.114Z,8.70
2023-03-02T09:42:38.121Z,8.70
2023-03-02T09:43:27.076Z,8.60
2023-03-02T09:44:26.072Z,8.00
2023-03-02T09:45:26.061Z,8.10
2023-03-02T09:46:26.182Z,7.30
2023-03-02T09:47:35.270Z,6.70
2023-03-02T09:48:27.033Z,6.70
2023-03-02T09:49:26.067Z,7.90
2023-03-02T09:50:26.029Z,7.20
2023-03-02T09:51:26.089Z,8.30
2023-03-02T09:52:25.968Z,8.30
2023-03-02T09:53:25.981Z,8.20
2023-03-02T09:54:26.108Z,6.50
2023-03-02T09:55:25.935Z,6.70
2023-03-02T09:56:25.952Z,5.60
2023-03-02T09:57:25.930Z,5.30
2023-03-02T09:58:25.900Z,5.40
2023-03-02T09:59:25.892Z,5.10
2023-03-02T10:00:25.936Z,5.10
2023-03-02T10:01:25.883Z,5.40
2023-03-02T10:02:25.852Z,6.70
2023-03-02T10:03:25.908Z,8.00
2023-03-02T10:04:26.065Z,7.40
2023-03-02T10:05:25.863Z,6.00
2023-03-02T10:06:25.823Z,5.30
2023-03-02T10:07:25.859Z,5.40
2023-03-02T10:08:25.806Z,5.50
2023-03-02T10:09:25.780Z,5.70
2023-03-02T10:10:25.815Z,5.40
2023-03-02T10:11:25.775Z,5.50
2023-03-02T10:12:25.754Z,5.40
2023-03-02T10:13:25.750Z,7.30
2023-03-02T10:14:25.732Z,7.10
2023-03-02T10:15:25.719Z,5.90
2023-03-02T10:16:25.835Z,5.80
2023-03-02T10:17:25.718Z,5.80
2023-03-02T10:18:25.698Z,5.90
2023-03-02T10:19:27.512Z,6.40
2023-03-02T10:20:25.674Z,6.20
2023-03-02T10:21:25.679Z,6.70
2023-03-02T10:22:25.637Z,8.10
2023-03-02T10:23:25.648Z,6.60
2023-03-02T10:24:27.512Z,6.30
2023-03-02T10:25:25.601Z,6.30
2023-03-02T10:26:25.654Z,5.30
2023-03-02T10:27:25.617Z,5.90
2023-03-02T10:28:25.634Z,6.00
2023-03-02T10:29:25.569Z,7.60
2023-03-02T10:30:25.601Z,8.50
2023-03-02T10:31:25.621Z,8.70
2023-03-02T10:32:25.573Z,7.80
2023-03-02T10:33:25.531Z,7.80
2023-03-02T10:34:25.515Z,8.00
2023-03-02T10:35:25.515Z,7.80
2023-03-02T10:36:25.480Z,7.40
2023-03-02T10:37:25.661Z,6.90
2023-03-02T10:38:25.491Z,6.70
2023-03-02T10:39:25.522Z,6.20
2023-03-02T10:40:25.432Z,6.90
2023-03-02T10:41:25.434Z,6.60
2023-03-02T10:42:25.464Z,6.30
2023-03-02T10:43:25.402Z,6.90
2023-03-02T10:44:25.394Z,6.50
2023-03-02T10:45:25.379Z,6.60
2023-03-02T10:46:25.530Z,9.00
2023-03-02T10:47:25.359Z,7.90
2023-03-02T10:48:32.875Z,7.40
2023-03-02T10:49:25.374Z,8.30
2023-03-02T10:50:25.347Z,7.70
2023-03-02T10:51:25.311Z,7.90
2023-03-02T10:52:25.314Z,7.50
2023-03-02T10:53:25.304Z,8.90
2023-03-02T10:54:25.274Z,8.10
2023-03-02T10:55:25.268Z,9.80
2023-03-02T10:56:25.298Z,12.60
2023-03-02T10:57:25.268Z,11.60
2023-03-02T10:58:25.267Z,10.70
2023-03-02T10:59:25.229Z,8.60
2023-03-02T11:00:25.217Z,9.20
2023-03-02T11:01:25.279Z,7.90
2023-03-02T11:02:25.200Z,8.60
2023-03-02T11:03:25.227Z,8.00
2023-03-02T11:04:25.249Z,8.40
2023-03-02T11:05:25.159Z,11.40
2023-03-02T11:06:25.155Z,8.90
2023-03-02T11:07:25.185Z,10.20
2023-03-02T11:08:25.125Z,9.30
2023-03-02T11:10:25.117Z,7.60
2023-03-02T11:11:25.161Z,7.10
2023-03-02T11:12:25.126Z,6.50
2023-03-02T11:13:25.082Z,6.80
2023-03-02T11:14:25.196Z,6.40
2023-03-02T11:15:25.054Z,6.30
2023-03-02T11:16:25.096Z,6.80
2023-03-02T11:17:25.029Z,7.60
2023-03-02T11:18:25.026Z,7.00
2023-03-02T11:19:25.032Z,6.70
2023-03-02T11:20:24.998Z,6.80
2023-03-02T11:21:24.984Z,7.60
2023-03-02T11:22:25.004Z,8.10
2023-03-02T11:23:24.995Z,7.20
2023-03-02T11:24:24.946Z,7.70
2023-03-02T11:25:24.949Z,7.10
2023-03-02T11:26:24.942Z,7.80
2023-03-02T11:27:24.921Z,7.70
2023-03-02T11:28:24.911Z,8.00
2023-03-02T11:29:24.972Z,9.60
2023-03-02T11:30:24.910Z,9.80
2023-03-02T11:31:24.932Z,8.90
2023-03-02T11:32:24.944Z,8.40
2023-03-02T11:33:24.939Z,9.00
2023-03-02T11:34:27.010Z,7.80
2023-03-02T11:35:24.878Z,6.80
2023-03-02T11:36:24.830Z,7.80
2023-03-02T11:37:24.834Z,8.10
2023-03-02T11:38:24.811Z,12.30
2023-03-02T11:39:24.835Z,14.50
2023-03-02T11:40:24.794Z,11.00
2023-03-02T11:41:24.776Z,9.90
2023-03-02T11:42:24.791Z,9.80
2023-03-02T11:43:24.769Z,11.00
2023-03-02T11:44:24.791Z,8.00
2023-03-02T11:45:27.633Z,7.30
2023-03-02T11:46:26.284Z,7.60
2023-03-02T11:47:24.752Z,7.10
2023-03-02T11:48:24.777Z,9.00
2023-03-02T11:49:24.723Z,12.30
2023-03-02T11:50:24.675Z,9.20
2023-03-02T11:51:24.668Z,10.20
2023-03-02T11:52:24.645Z,10.30
2023-03-02T11:53:24.667Z,9.00
2023-03-02T11:54:24.672Z,8.70
2023-03-02T11:55:24.618Z,8.60
2023-03-02T11:56:24.612Z,8.10
2023-03-02T11:57:24.602Z,8.10
2023-03-02T11:58:24.580Z,8.40
2023-03-02T11:59:27.528Z,8.60
2023-03-02T12:00:24.580Z,8.10
2023-03-02T12:01:24.606Z,8.40
2023-03-02T12:02:24.557Z,8.30
2023-03-02T12:03:24.528Z,8.20
2023-03-02T12:04:24.518Z,8.50
2023-03-02T12:05:24.584Z,8.30
2023-03-02T12:06:24.509Z,7.80
2023-03-02T12:07:24.493Z,8.60
2023-03-02T12:08:24.478Z,8.40
2023-03-02T12:09:24.505Z,8.30
2023-03-02T12:10:24.441Z,8.90
2023-03-02T12:11:24.432Z,8.50
2023-03-02T12:12:24.482Z,8.90
2023-03-02T12:13:24.408Z,9.10
2023-03-02T12:14:24.512Z,9.00
2023-03-02T12:15:24.448Z,8.60
2023-03-02T12:16:24.463Z,8.30
2023-03-02T12:17:24.402Z,9.10
2023-03-02T12:18:24.371Z,8.60
2023-03-02T12:19:24.343Z,8.50
2023-03-02T12:20:24.346Z,8.90
2023-03-02T12:21:24.334Z,8.90
2023-03-02T12:22:24.323Z,9.10
2023-03-02T12:23:24.307Z,8.80
2023-03-02T12:24:24.310Z,8.60
2023-03-02T12:25:24.295Z,8.60
2023-03-02T12:26:24.264Z,8.30
2023-03-02T12:27:24.290Z,9.00
2023-03-02T12:28:24.280Z,9.50
2023-03-02T12:29:24.319Z,9.30
2023-03-02T12:30:24.297Z,9.10
2023-03-02T12:31:24.226Z,8.60
2023-03-02T12:32:24.291Z,9.20
2023-03-02T12:33:24.218Z,8.50
2023-03-02T12:34:24.248Z,8.80
2023-03-02T12:35:24.172Z,8.60
2023-03-02T12:36:24.164Z,8.50
2023-03-02T12:37:24.152Z,9.30
2023-03-02T12:38:24.146Z,8.80
2023-03-02T12:39:24.124Z,8.70
2023-03-02T12:40:24.135Z,9.40
2023-03-02T12:41:24.109Z,9.30
2023-03-02T12:42:24.095Z,9.40
2023-03-02T12:43:24.091Z,9.30
2023-03-02T12:44:24.095Z,9.40
2023-03-02T12:45:24.066Z,9.20
2023-03-02T12:46:24.048Z,9.80
2023-03-02T12:47:24.808Z,9.30
2023-03-02T12:48:24.039Z,9.90
2023-03-02T12:49:31.542Z,9.70
2023-03-02T12:50:24.008Z,9.20
2023-03-02T12:51:24.101Z,9.70
2023-03-02T12:52:24.314Z,9.60
2023-03-02T12:53:23.962Z,9.20
2023-03-02T12:54:23.963Z,9.50
2023-03-02T12:55:23.938Z,9.30
2023-03-02T12:56:23.983Z,9.10
2023-03-02T12:57:23.923Z,9.60
2023-03-02T12:58:23.917Z,9.50
2023-03-02T12:59:23.894Z,10.30
2023-03-02T13:00:23.889Z,10.00
2023-03-02T13:01:23.952Z,10.60
2023-03-02T13:02:23.968Z,9.60
2023-03-02T13:03:23.860Z,9.80
2023-03-02T13:04:23.931Z,9.10
2023-03-02T13:05:23.910Z,9.00
2023-03-02T13:06:23.871Z,9.00
2023-03-02T13:07:23.811Z,9.60
2023-03-02T13:08:23.883Z,9.80
2023-03-02T13:09:23.799Z,9.50
2023-03-02T13:10:23.811Z,9.40
2023-03-02T13:11:23.767Z,9.40
2023-03-02T13:12:23.753Z,7.90
2023-03-02T13:13:23.810Z,8.90
2023-03-02T13:14:24.651Z,9.00
2023-03-02T13:15:23.713Z,8.90
2023-03-02T13:16:23.746Z,9.50
2023-03-02T13:17:23.711Z,8.80
2023-03-02T13:18:23.695Z,9.00
2023-03-02T13:19:23.683Z,8.60